sensor_id;sensor_type;location;lat;lon;timestamp;pressure;altitude;pressure_sealevel;temperature;humidity
75775;BME280;64505;51.458;7.556;2023-08-24T00:00:42;100024.56;;;17.65;86.59
75775;BME280;64505;51.458;7.556;2023-08-24T00:02:44;100024.00;;;17.58;86.98
75775;BME280;64505;51.458;7.556;2023-08-24T00:04:45;100030.13;;;17.54;86.88
75775;BME280;64505;51.458;7.556;2023-08-24T00:06:47;100024.22;;;17.52;88.59
75775;BME280;64505;51.458;7.556;2023-08-24T00:08:48;100022.59;;;17.51;87.50
75775;BME280;64505;51.458;7.556;2023-08-24T00:10:50;100025.03;;;17.52;86.38
75775;BME280;64505;51.458;7.556;2023-08-24T00:12:51;100019.66;;;17.42;88.11
75775;BME280;64505;51.458;7.556;2023-08-24T00:14:53;100015.06;;;17.38;88.75
75775;BME280;64505;51.458;7.556;2023-08-24T00:16:54;100013.19;;;17.38;89.27
75775;BME280;64505;51.458;7.556;2023-08-24T00:18:56;100012.41;;;17.38;88.11
75775;BME280;64505;51.458;7.556;2023-08-24T00:20:57;100008.38;;;17.40;86.38
75775;BME280;64505;51.458;7.556;2023-08-24T00:22:59;100007.84;;;17.38;87.32
75775;BME280;64505;51.458;7.556;2023-08-24T00:25:01;100006.25;;;17.37;85.83
75775;BME280;64505;51.458;7.556;2023-08-24T00:27:02;100003.03;;;17.35;86.88
75775;BME280;64505;51.458;7.556;2023-08-24T00:29:04;100001.66;;;17.28;88.83
75775;BME280;64505;51.458;7.556;2023-08-24T00:31:05;100000.84;;;17.27;88.88
75775;BME280;64505;51.458;7.556;2023-08-24T00:33:07;100003.75;;;17.26;88.66
75775;BME280;64505;51.458;7.556;2023-08-24T00:35:09;100001.09;;;17.20;88.90
75775;BME280;64505;51.458;7.556;2023-08-24T00:37:11;100001.59;;;17.17;89.91
75775;BME280;64505;51.458;7.556;2023-08-24T00:39:13;99995.44;;;17.17;89.51
75775;BME280;64505;51.458;7.556;2023-08-24T00:41:14;99993.03;;;17.15;89.74
75775;BME280;64505;51.458;7.556;2023-08-24T00:43:16;100000.22;;;17.15;89.32
75775;BME280;64505;51.458;7.556;2023-08-24T00:45:17;100001.03;;;17.15;88.09
75775;BME280;64505;51.458;7.556;2023-08-24T00:47:19;100000.75;;;17.12;90.72
75775;BME280;64505;51.458;7.556;2023-08-24T00:49:21;100004.00;;;17.19;89.58
75775;BME280;64505;51.458;7.556;2023-08-24T00:51:24;99993.31;;;17.14;89.90
75775;BME280;64505;51.458;7.556;2023-08-24T00:53:26;99997.56;;;17.15;89.57
75775;BME280;64505;51.458;7.556;2023-08-24T00:55:28;99989.53;;;17.10;90.25
75775;BME280;64505;51.458;7.556;2023-08-24T00:57:31;99997.78;;;17.08;90.13
75775;BME280;64505;51.458;7.556;2023-08-24T00:59:34;99993.25;;;17.09;90.39
75775;BME280;64505;51.458;7.556;2023-08-24T01:01:36;99983.34;;;17.04;90.30
75775;BME280;64505;51.458;7.556;2023-08-24T01:03:38;99981.19;;;17.01;91.04
75775;BME280;64505;51.458;7.556;2023-08-24T01:05:40;99978.78;;;17.00;90.05
75775;BME280;64505;51.458;7.556;2023-08-24T01:07:41;99978.22;;;16.98;90.71
75775;BME280;64505;51.458;7.556;2023-08-24T01:09:43;99969.13;;;16.94;90.95
75775;BME280;64505;51.458;7.556;2023-08-24T01:11:54;99981.38;;;16.90;91.27
75775;BME280;64505;51.458;7.556;2023-08-24T01:14:09;99980.84;;;16.88;90.43
75775;BME280;64505;51.458;7.556;2023-08-24T01:16:22;99977.59;;;16.86;90.21
75775;BME280;64505;51.458;7.556;2023-08-24T01:18:30;99984.31;;;16.88;89.17
75775;BME280;64505;51.458;7.556;2023-08-24T01:20:33;99975.75;;;16.86;89.75
75775;BME280;64505;51.458;7.556;2023-08-24T01:25:16;99984.03;;;16.85;90.58
75775;BME280;64505;51.458;7.556;2023-08-24T01:27:20;99978.41;;;16.81;90.69
75775;BME280;64505;51.458;7.556;2023-08-24T01:29:22;99977.59;;;16.81;90.06
75775;BME280;64505;51.458;7.556;2023-08-24T01:31:24;99970.09;;;16.78;90.96
75775;BME280;64505;51.458;7.556;2023-08-24T01:33:26;99979.16;;;16.77;91.07
75775;BME280;64505;51.458;7.556;2023-08-24T01:35:27;99984.19;;;16.73;92.46
75775;BME280;64505;51.458;7.556;2023-08-24T01:37:29;99978.06;;;16.72;91.25
75775;BME280;64505;51.458;7.556;2023-08-24T01:40:00;99974.84;;;16.70;90.55
75775;BME280;64505;51.458;7.556;2023-08-24T01:42:15;99973.47;;;16.68;92.16
75775;BME280;64505;51.458;7.556;2023-08-24T01:44:20;99964.34;;;16.59;92.79
75775;BME280;64505;51.458;7.556;2023-08-24T01:46:24;99960.84;;;16.58;92.57
75775;BME280;64505;51.458;7.556;2023-08-24T01:48:26;99969.69;;;16.59;91.43
75775;BME280;64505;51.458;7.556;2023-08-24T01:50:29;99967.25;;;16.57;91.81
75775;BME280;64505;51.458;7.556;2023-08-24T01:52:32;99966.69;;;16.55;90.81
75775;BME280;64505;51.458;7.556;2023-08-24T01:54:36;99965.16;;;16.59;90.12
75775;BME280;64505;51.458;7.556;2023-08-24T01:56:38;99958.44;;;16.57;90.73
75775;BME280;64505;51.458;7.556;2023-08-24T01:58:39;99957.38;;;16.58;90.51
75775;BME280;64505;51.458;7.556;2023-08-24T02:00:41;99954.38;;;16.49;92.27
75775;BME280;64505;51.458;7.556;2023-08-24T02:02:44;99947.13;;;16.50;91.43
75775;BME280;64505;51.458;7.556;2023-08-24T02:04:46;99945.84;;;16.52;90.07
75775;BME280;64505;51.458;7.556;2023-08-24T02:06:47;99950.06;;;16.48;90.79
75775;BME280;64505;51.458;7.556;2023-08-24T02:08:49;99945.50;;;16.44;90.39
75775;BME280;64505;51.458;7.556;2023-08-24T02:10:50;99952.41;;;16.40;92.33
75775;BME280;64505;51.458;7.556;2023-08-24T02:12:52;99958.00;;;16.38;93.63
75775;BME280;64505;51.458;7.556;2023-08-24T02:14:53;99956.69;;;16.41;93.12
75775;BME280;64505;51.458;7.556;2023-08-24T02:16:55;99962.56;;;16.43;91.82
75775;BME280;64505;51.458;7.556;2023-08-24T02:18:56;99951.59;;;16.39;93.83
75775;BME280;64505;51.458;7.556;2023-08-24T02:20:58;99946.00;;;16.41;92.07
75775;BME280;64505;51.458;7.556;2023-08-24T02:22:59;99940.63;;;16.36;91.69
75775;BME280;64505;51.458;7.556;2023-08-24T02:25:01;99931.56;;;16.37;91.42
75775;BME280;64505;51.458;7.556;2023-08-24T02:27:04;99931.81;;;16.35;91.63
75775;BME280;64505;51.458;7.556;2023-08-24T02:29:05;99931.50;;;16.32;92.30
75775;BME280;64505;51.458;7.556;2023-08-24T02:31:07;99928.06;;;16.31;91.61
75775;BME280;64505;51.458;7.556;2023-08-24T02:33:08;99926.97;;;16.32;90.68
75775;BME280;64505;51.458;7.556;2023-08-24T02:35:10;99927.53;;;16.34;91.65
75775;BME280;64505;51.458;7.556;2023-08-24T02:37:11;99937.63;;;16.27;91.62
75775;BME280;64505;51.458;7.556;2023-08-24T02:39:13;99930.97;;;16.30;90.80
75775;BME280;64505;51.458;7.556;2023-08-24T02:41:15;99936.53;;;16.23;93.52
75775;BME280;64505;51.458;7.556;2023-08-24T02:43:16;99933.84;;;16.23;93.96
75775;BME280;64505;51.458;7.556;2023-08-24T02:45:17;99947.19;;;16.23;92.57
75775;BME280;64505;51.458;7.556;2023-08-24T02:47:19;99944.22;;;16.19;93.55
75775;BME280;64505;51.458;7.556;2023-08-24T02:49:20;99946.94;;;16.24;92.34
75775;BME280;64505;51.458;7.556;2023-08-24T02:51:22;99949.56;;;16.19;92.27
75775;BME280;64505;51.458;7.556;2023-08-24T02:53:25;99943.97;;;16.21;91.82
75775;BME280;64505;51.458;7.556;2023-08-24T02:55:26;99940.47;;;16.15;92.21
75775;BME280;64505;51.458;7.556;2023-08-24T02:57:28;99934.56;;;16.13;92.50
75775;BME280;64505;51.458;7.556;2023-08-24T02:59:29;99928.97;;;16.15;92.27
75775;BME280;64505;51.458;7.556;2023-08-24T03:01:31;99923.88;;;16.13;93.43
75775;BME280;64505;51.458;7.556;2023-08-24T03:03:36;99930.03;;;16.14;92.55
75775;BME280;64505;51.458;7.556;2023-08-24T03:05:38;99926.31;;;16.15;92.23
75775;BME280;64505;51.458;7.556;2023-08-24T03:07:39;99926.81;;;16.12;91.30
75775;BME280;64505;51.458;7.556;2023-08-24T03:09:41;99934.56;;;16.13;91.80
75775;BME280;64505;51.458;7.556;2023-08-24T03:11:42;99934.06;;;16.16;92.67
75775;BME280;64505;51.458;7.556;2023-08-24T03:13:44;99937.78;;;16.15;94.24
75775;BME280;64505;51.458;7.556;2023-08-24T03:15:45;99936.44;;;16.13;95.29
75775;BME280;64505;51.458;7.556;2023-08-24T03:17:47;99941.50;;;16.14;94.98
75775;BME280;64505;51.458;7.556;2023-08-24T03:19:49;99936.75;;;16.16;93.87
75775;BME280;64505;51.458;7.556;2023-08-24T03:21:50;99941.28;;;16.16;93.49
75775;BME280;64505;51.458;7.556;2023-08-24T03:23:52;99933.81;;;16.18;92.22
75775;BME280;64505;51.458;7.556;2023-08-24T03:25:55;99940.19;;;16.17;94.19
75775;BME280;64505;51.458;7.556;2023-08-24T03:27:57;99945.28;;;16.18;95.38
75775;BME280;64505;51.458;7.556;2023-08-24T03:29:58;99940.25;;;16.22;94.45
75775;BME280;64505;51.458;7.556;2023-08-24T03:32:00;99935.97;;;16.21;93.53
75775;BME280;64505;51.458;7.556;2023-08-24T03:34:01;99933.84;;;16.23;93.33
75775;BME280;64505;51.458;7.556;2023-08-24T03:36:05;99926.97;;;16.27;92.34
75775;BME280;64505;51.458;7.556;2023-08-24T03:38:06;99929.63;;;16.27;93.18
75775;BME280;64505;51.458;7.556;2023-08-24T03:40:08;99928.00;;;16.26;94.49
75775;BME280;64505;51.458;7.556;2023-08-24T03:42:10;99930.16;;;16.29;94.28
75775;BME280;64505;51.458;7.556;2023-08-24T03:44:11;99922.97;;;16.30;95.10
75775;BME280;64505;51.458;7.556;2023-08-24T03:46:37;99930.47;;;16.33;93.76
75775;BME280;64505;51.458;7.556;2023-08-24T03:48:38;99931.03;;;16.35;93.22
75775;BME280;64505;51.458;7.556;2023-08-24T03:50:40;99933.69;;;16.35;93.43
75775;BME280;64505;51.458;7.556;2023-08-24T03:52:42;99926.97;;;16.32;95.72
75775;BME280;64505;51.458;7.556;2023-08-24T03:54:43;99925.41;;;16.36;95.56
75775;BME280;64505;51.458;7.556;2023-08-24T03:56:45;99922.50;;;16.38;95.22
75775;BME280;64505;51.458;7.556;2023-08-24T03:58:46;99923.03;;;16.40;95.11
75775;BME280;64505;51.458;7.556;2023-08-24T04:00:48;99925.19;;;16.43;94.26
75775;BME280;64505;51.458;7.556;2023-08-24T04:02:49;99929.78;;;16.47;94.02
75775;BME280;64505;51.458;7.556;2023-08-24T04:04:51;99930.59;;;16.48;95.32
75775;BME280;64505;51.458;7.556;2023-08-24T04:06:52;99934.59;;;16.50;94.63
75775;BME280;64505;51.458;7.556;2023-08-24T04:08:54;99927.97;;;16.53;94.08
75775;BME280;64505;51.458;7.556;2023-08-24T04:10:55;99939.19;;;16.55;94.66
75775;BME280;64505;51.458;7.556;2023-08-24T04:12:57;99948.25;;;16.54;94.15
75775;BME280;64505;51.458;7.556;2023-08-24T04:14:58;99950.41;;;16.57;94.94
75775;BME280;64505;51.458;7.556;2023-08-24T04:17:00;99950.72;;;16.60;95.17
75775;BME280;64505;51.458;7.556;2023-08-24T04:19:01;99959.28;;;16.62;95.37
75775;BME280;64505;51.458;7.556;2023-08-24T04:21:03;99960.41;;;16.66;94.40
75775;BME280;64505;51.458;7.556;2023-08-24T04:23:06;99958.78;;;16.65;94.65
75775;BME280;64505;51.458;7.556;2023-08-24T04:25:08;99952.63;;;16.65;94.71
75775;BME280;64505;51.458;7.556;2023-08-24T04:27:10;99954.28;;;16.71;95.04
75775;BME280;64505;51.458;7.556;2023-08-24T04:29:12;99944.97;;;16.73;95.61
75775;BME280;64505;51.458;7.556;2023-08-24T04:31:13;99940.41;;;16.74;95.60
75775;BME280;64505;51.458;7.556;2023-08-24T04:33:15;99936.66;;;16.75;95.66
75775;BME280;64505;51.458;7.556;2023-08-24T04:35:16;99937.47;;;16.76;94.33
75775;BME280;64505;51.458;7.556;2023-08-24T04:37:18;99929.47;;;16.76;95.60
75775;BME280;64505;51.458;7.556;2023-08-24T04:39:19;99929.22;;;16.77;95.98
75775;BME280;64505;51.458;7.556;2023-08-24T04:41:20;99936.47;;;16.82;96.02
75775;BME280;64505;51.458;7.556;2023-08-24T04:43:23;99933.78;;;16.82;96.38
75775;BME280;64505;51.458;7.556;2023-08-24T04:45:25;99929.22;;;16.82;96.00
75775;BME280;64505;51.458;7.556;2023-08-24T04:47:26;99930.59;;;16.85;95.08
75775;BME280;64505;51.458;7.556;2023-08-24T04:49:30;99929.78;;;16.84;95.41
75775;BME280;64505;51.458;7.556;2023-08-24T04:51:31;99931.41;;;16.85;95.72
75775;BME280;64505;51.458;7.556;2023-08-24T04:53:33;99940.53;;;16.89;96.78
75775;BME280;64505;51.458;7.556;2023-08-24T04:55:34;99939.44;;;16.90;95.67
75775;BME280;64505;51.458;7.556;2023-08-24T04:57:35;99940.00;;;16.92;95.30
75775;BME280;64505;51.458;7.556;2023-08-24T04:59:37;99941.59;;;16.93;96.11
75775;BME280;64505;51.458;7.556;2023-08-24T05:01:38;99931.19;;;16.97;96.34
75775;BME280;64505;51.458;7.556;2023-08-24T05:03:40;99928.78;;;16.95;94.85
75775;BME280;64505;51.458;7.556;2023-08-24T05:05:41;99924.50;;;16.94;95.44
75775;BME280;64505;51.458;7.556;2023-08-24T05:07:43;99927.47;;;16.98;95.37
75775;BME280;64505;51.458;7.556;2023-08-24T05:09:44;99931.00;;;17.03;96.93
75775;BME280;64505;51.458;7.556;2023-08-24T05:11:46;99929.38;;;17.02;96.65
75775;BME280;64505;51.458;7.556;2023-08-24T05:13:48;99924.56;;;17.04;95.87
75775;BME280;64505;51.458;7.556;2023-08-24T05:15:49;99926.13;;;17.00;97.07
75775;BME280;64505;51.458;7.556;2023-08-24T05:17:51;99919.75;;;17.01;96.75
75775;BME280;64505;51.458;7.556;2023-08-24T05:19:58;99924.56;;;17.04;97.25
75775;BME280;64505;51.458;7.556;2023-08-24T05:21:59;99909.34;;;17.05;97.62
75775;BME280;64505;51.458;7.556;2023-08-24T05:24:01;99898.13;;;17.08;96.99
75775;BME280;64505;51.458;7.556;2023-08-24T05:26:03;99892.50;;;17.04;97.21
75775;BME280;64505;51.458;7.556;2023-08-24T05:28:04;99889.63;;;17.11;95.04
75775;BME280;64505;51.458;7.556;2023-08-24T05:30:06;99886.94;;;17.11;96.17
75775;BME280;64505;51.458;7.556;2023-08-24T05:32:08;99896.00;;;17.10;96.04
75775;BME280;64505;51.458;7.556;2023-08-24T05:34:09;99900.03;;;17.12;93.82
75775;BME280;64505;51.458;7.556;2023-08-24T05:36:11;99911.47;;;17.08;95.13
75775;BME280;64505;51.458;7.556;2023-08-24T05:38:14;99898.16;;;17.13;94.10
75775;BME280;64505;51.458;7.556;2023-08-24T05:40:15;99891.72;;;17.09;95.14
75775;BME280;64505;51.458;7.556;2023-08-24T05:42:17;99888.53;;;17.12;95.03
75775;BME280;64505;51.458;7.556;2023-08-24T05:44:19;99894.69;;;17.12;95.71
75775;BME280;64505;51.458;7.556;2023-08-24T05:46:21;99890.94;;;17.13;95.46
75775;BME280;64505;51.458;7.556;2023-08-24T05:48:22;99883.75;;;17.19;95.21
75775;BME280;64505;51.458;7.556;2023-08-24T05:50:24;99869.03;;;17.16;95.06
75775;BME280;64505;51.458;7.556;2023-08-24T05:52:25;99862.38;;;17.19;93.54
75775;BME280;64505;51.458;7.556;2023-08-24T05:54:27;99858.63;;;17.20;94.53
75775;BME280;64505;51.458;7.556;2023-08-24T05:56:28;99857.53;;;17.16;94.77
75775;BME280;64505;51.458;7.556;2023-08-24T05:58:30;99848.19;;;17.18;94.43
75775;BME280;64505;51.458;7.556;2023-08-24T06:00:31;99856.78;;;17.20;93.67
75775;BME280;64505;51.458;7.556;2023-08-24T06:02:33;99859.44;;;17.20;93.73
75775;BME280;64505;51.458;7.556;2023-08-24T06:04:34;99838.88;;;17.21;95.38
75775;BME280;64505;51.458;7.556;2023-08-24T06:06:36;99830.03;;;17.26;96.46
75775;BME280;64505;51.458;7.556;2023-08-24T06:08:38;99824.16;;;17.23;95.88
75775;BME280;64505;51.458;7.556;2023-08-24T06:10:41;99821.00;;;17.32;95.50
75775;BME280;64505;51.458;7.556;2023-08-24T06:12:42;99812.19;;;17.36;96.31
75775;BME280;64505;51.458;7.556;2023-08-24T06:14:44;99806.31;;;17.39;95.75
75775;BME280;64505;51.458;7.556;2023-08-24T06:16:45;99806.84;;;17.41;95.01
75775;BME280;64505;51.458;7.556;2023-08-24T06:18:47;99796.69;;;17.43;93.40
75775;BME280;64505;51.458;7.556;2023-08-24T06:20:49;99802.03;;;17.43;94.81
75775;BME280;64505;51.458;7.556;2023-08-24T06:22:54;99800.69;;;17.46;94.24
75775;BME280;64505;51.458;7.556;2023-08-24T06:24:57;99791.09;;;17.50;95.12
75775;BME280;64505;51.458;7.556;2023-08-24T06:27:01;99793.22;;;17.53;94.76
75775;BME280;64505;51.458;7.556;2023-08-24T06:29:03;99788.69;;;17.58;94.00
75775;BME280;64505;51.458;7.556;2023-08-24T06:31:04;99785.78;;;17.65;93.14
75775;BME280;64505;51.458;7.556;2023-08-24T06:33:06;99785.22;;;17.73;93.20
75775;BME280;64505;51.458;7.556;2023-08-24T06:35:08;99788.47;;;17.75;93.44
75775;BME280;64505;51.458;7.556;2023-08-24T06:37:10;99779.91;;;17.78;95.44
75775;BME280;64505;51.458;7.556;2023-08-24T06:39:11;99765.19;;;17.86;93.96
75775;BME280;64505;51.458;7.556;2023-08-24T06:41:13;99764.66;;;17.94;92.90
75775;BME280;64505;51.458;7.556;2023-08-24T06:43:14;99755.00;;;18.03;93.42
75775;BME280;64505;51.458;7.556;2023-08-24T06:45:16;99748.00;;;18.17;94.70
75775;BME280;64505;51.458;7.556;2023-08-24T06:47:19;99749.06;;;18.26;93.02
75775;BME280;64505;51.458;7.556;2023-08-24T06:49:21;99758.13;;;18.35;91.40
75775;BME280;64505;51.458;7.556;2023-08-24T06:51:22;99756.22;;;18.46;91.32
75775;BME280;64505;51.458;7.556;2023-08-24T06:53:24;99761.00;;;18.64;89.51
75775;BME280;64505;51.458;7.556;2023-08-24T06:55:26;99762.56;;;18.80;88.73
75775;BME280;64505;51.458;7.556;2023-08-24T06:57:29;99755.28;;;18.86;86.76
75775;BME280;64505;51.458;7.556;2023-08-24T06:59:30;99764.63;;;18.98;88.06
75775;BME280;64505;51.458;7.556;2023-08-24T07:01:32;99762.19;;;19.02;86.23
75775;BME280;64505;51.458;7.556;2023-08-24T07:03:33;99764.88;;;19.02;88.52
75775;BME280;64505;51.458;7.556;2023-08-24T07:05:35;99760.59;;;18.96;86.79
75775;BME280;64505;51.458;7.556;2023-08-24T07:07:40;99758.16;;;18.99;87.04
75775;BME280;64505;51.458;7.556;2023-08-24T07:09:45;99764.31;;;19.00;86.68
75775;BME280;64505;51.458;7.556;2023-08-24T07:11:48;99764.25;;;19.15;84.50
75775;BME280;64505;51.458;7.556;2023-08-24T07:13:49;99767.16;;;19.24;86.29
75775;BME280;64505;51.458;7.556;2023-08-24T07:15:52;99764.72;;;19.27;84.54
75775;BME280;64505;51.458;7.556;2023-08-24T07:17:53;99758.72;;;19.40;85.18
75775;BME280;64505;51.458;7.556;2023-08-24T07:19:55;99762.97;;;19.51;83.08
75775;BME280;64505;51.458;7.556;2023-08-24T07:21:57;99757.84;;;19.55;82.13
75775;BME280;64505;51.458;7.556;2023-08-24T07:23:59;99760.50;;;19.60;84.15
75775;BME280;64505;51.458;7.556;2023-08-24T07:26:01;99762.56;;;19.68;83.37
75775;BME280;64505;51.458;7.556;2023-08-24T07:28:02;99767.00;;;19.83;83.07
75775;BME280;64505;51.458;7.556;2023-08-24T07:30:05;99766.44;;;19.86;82.19
75775;BME280;64505;51.458;7.556;2023-08-24T07:32:30;99769.31;;;19.94;82.50
75775;BME280;64505;51.458;7.556;2023-08-24T07:34:32;99767.09;;;20.01;81.27
75775;BME280;64505;51.458;7.556;2023-08-24T07:36:34;99770.00;;;20.05;80.93
75775;BME280;64505;51.458;7.556;2023-08-24T07:38:35;99770.47;;;20.12;79.04
75775;BME280;64505;51.458;7.556;2023-08-24T07:40:37;99766.94;;;20.17;81.56
75775;BME280;64505;51.458;7.556;2023-08-24T07:42:45;99770.34;;;20.27;80.85
75775;BME280;64505;51.458;7.556;2023-08-24T07:44:48;99777.81;;;20.35;81.81
75775;BME280;64505;51.458;7.556;2023-08-24T07:46:50;99774.78;;;20.42;79.00
75775;BME280;64505;51.458;7.556;2023-08-24T07:48:51;99771.50;;;20.45;80.57
75775;BME280;64505;51.458;7.556;2023-08-24T07:50:53;99773.81;;;20.56;78.96
75775;BME280;64505;51.458;7.556;2023-08-24T07:52:54;99780.72;;;20.62;79.26
75775;BME280;64505;51.458;7.556;2023-08-24T07:54:58;99775.22;;;20.73;79.24
75775;BME280;64505;51.458;7.556;2023-08-24T07:57:01;99773.72;;;20.85;79.63
75775;BME280;64505;51.458;7.556;2023-08-24T07:59:03;99769.31;;;20.94;79.22
75775;BME280;64505;51.458;7.556;2023-08-24T08:01:04;99779.19;;;20.99;78.16
75775;BME280;64505;51.458;7.556;2023-08-24T08:03:06;99765.09;;;21.07;76.32
75775;BME280;64505;51.458;7.556;2023-08-24T08:05:07;99764.16;;;21.17;77.24
75775;BME280;64505;51.458;7.556;2023-08-24T08:07:11;99759.44;;;21.27;77.57
75775;BME280;64505;51.458;7.556;2023-08-24T08:09:12;99757.50;;;21.33;77.03
75775;BME280;64505;51.458;7.556;2023-08-24T08:11:14;99750.94;;;21.39;77.04
75775;BME280;64505;51.458;7.556;2023-08-24T08:13:15;99749.78;;;21.45;75.42
75775;BME280;64505;51.458;7.556;2023-08-24T08:15:17;99749.19;;;21.48;75.91
75775;BME280;64505;51.458;7.556;2023-08-24T08:17:18;99745.25;;;21.59;76.25
75775;BME280;64505;51.458;7.556;2023-08-24T08:19:20;99751.06;;;21.66;76.29
75775;BME280;64505;51.458;7.556;2023-08-24T08:21:23;99750.06;;;21.76;76.27
75775;BME280;64505;51.458;7.556;2023-08-24T08:23:24;99741.34;;;21.84;75.89
75775;BME280;64505;51.458;7.556;2023-08-24T08:25:26;99748.22;;;21.90;76.60
75775;BME280;64505;51.458;7.556;2023-08-24T08:27:27;99757.53;;;21.97;74.08
75775;BME280;64505;51.458;7.556;2023-08-24T08:29:29;99750.97;;;22.03;73.88
75775;BME280;64505;51.458;7.556;2023-08-24T08:31:31;99758.38;;;22.12;73.63
75775;BME280;64505;51.458;7.556;2023-08-24T08:33:33;99758.47;;;22.20;72.18
75775;BME280;64505;51.458;7.556;2023-08-24T08:35:34;99767.56;;;22.24;71.83
75775;BME280;64505;51.458;7.556;2023-08-24T08:37:36;99766.28;;;22.35;72.62
75775;BME280;64505;51.458;7.556;2023-08-24T08:39:37;99762.38;;;22.41;70.37
75775;BME280;64505;51.458;7.556;2023-08-24T08:41:43;99759.41;;;22.56;70.47
75775;BME280;64505;51.458;7.556;2023-08-24T08:43:46;99759.88;;;22.58;70.03
75775;BME280;64505;51.458;7.556;2023-08-24T08:45:49;99753.88;;;22.62;68.86
75775;BME280;64505;51.458;7.556;2023-08-24T08:47:51;99743.31;;;22.65;70.51
75775;BME280;64505;51.458;7.556;2023-08-24T08:49:55;99737.56;;;22.72;70.35
75775;BME280;64505;51.458;7.556;2023-08-24T08:51:56;99728.44;;;22.81;69.36
75775;BME280;64505;51.458;7.556;2023-08-24T08:53:57;99730.00;;;22.96;71.05
75775;BME280;64505;51.458;7.556;2023-08-24T08:56:00;99719.41;;;22.99;68.11
75775;BME280;64505;51.458;7.556;2023-08-24T08:58:05;99725.06;;;23.12;72.02
75775;BME280;64505;51.458;7.556;2023-08-24T09:00:10;99718.94;;;23.20;70.78
75775;BME280;64505;51.458;7.556;2023-08-24T09:02:13;99726.31;;;23.28;70.76
75775;BME280;64505;51.458;7.556;2023-08-24T09:04:16;99727.97;;;23.37;70.59
75775;BME280;64505;51.458;7.556;2023-08-24T09:06:18;99722.66;;;23.46;70.65
75775;BME280;64505;51.458;7.556;2023-08-24T09:08:21;99719.72;;;23.56;70.76
75775;BME280;64505;51.458;7.556;2023-08-24T09:10:23;99721.56;;;23.69;70.89
75775;BME280;64505;51.458;7.556;2023-08-24T09:12:25;99717.44;;;23.72;70.99
75775;BME280;64505;51.458;7.556;2023-08-24T09:14:26;99716.53;;;23.76;69.03
75775;BME280;64505;51.458;7.556;2023-08-24T09:16:32;99712.88;;;23.81;68.34
75775;BME280;64505;51.458;7.556;2023-08-24T09:18:36;99712.63;;;23.91;69.19
75775;BME280;64505;51.458;7.556;2023-08-24T09:20:38;99719.03;;;24.03;69.84
75775;BME280;64505;51.458;7.556;2023-08-24T09:22:43;99709.81;;;24.05;67.86
75775;BME280;64505;51.458;7.556;2023-08-24T09:24:48;99710.00;;;24.08;66.85
75775;BME280;64505;51.458;7.556;2023-08-24T09:26:51;99708.66;;;24.19;67.03
75775;BME280;64505;51.458;7.556;2023-08-24T09:28:53;99705.16;;;24.27;67.08
75775;BME280;64505;51.458;7.556;2023-08-24T09:30:54;99700.41;;;24.33;68.00
75775;BME280;64505;51.458;7.556;2023-08-24T09:33:10;99695.06;;;24.41;67.26
75775;BME280;64505;51.458;7.556;2023-08-24T09:35:12;99683.28;;;24.46;66.29
75775;BME280;64505;51.458;7.556;2023-08-24T09:37:14;99679.16;;;24.48;63.83
75775;BME280;64505;51.458;7.556;2023-08-24T09:39:19;99664.38;;;24.55;64.93
75775;BME280;64505;51.458;7.556;2023-08-24T09:41:21;99656.63;;;24.70;65.11
75775;BME280;64505;51.458;7.556;2023-08-24T09:43:23;99645.13;;;24.82;63.44
75775;BME280;64505;51.458;7.556;2023-08-24T09:45:25;99646.78;;;24.91;66.41
75775;BME280;64505;51.458;7.556;2023-08-24T09:47:26;99633.72;;;25.02;64.74
75775;BME280;64505;51.458;7.556;2023-08-24T09:49:28;99630.53;;;25.09;62.64
75775;BME280;64505;51.458;7.556;2023-08-24T09:51:30;99637.84;;;25.17;61.62
75775;BME280;64505;51.458;7.556;2023-08-24T09:53:36;99626.69;;;25.35;63.20
75775;BME280;64505;51.458;7.556;2023-08-24T09:55:40;99629.03;;;25.45;63.98
75775;BME280;64505;51.458;7.556;2023-08-24T09:57:44;99621.84;;;25.58;61.97
75775;BME280;64505;51.458;7.556;2023-08-24T09:59:47;99617.66;;;25.69;63.40
75775;BME280;64505;51.458;7.556;2023-08-24T10:01:51;99609.75;;;25.64;62.01
75775;BME280;64505;51.458;7.556;2023-08-24T10:03:59;99608.56;;;25.74;60.59
75775;BME280;64505;51.458;7.556;2023-08-24T10:06:01;99616.97;;;25.89;63.47
75775;BME280;64505;51.458;7.556;2023-08-24T10:08:10;99622.66;;;25.97;60.87
75775;BME280;64505;51.458;7.556;2023-08-24T10:10:12;99613.72;;;25.96;63.03
75775;BME280;64505;51.458;7.556;2023-08-24T10:12:18;99605.75;;;26.00;61.17
75775;BME280;64505;51.458;7.556;2023-08-24T10:14:47;99614.47;;;26.05;61.00
75775;BME280;64505;51.458;7.556;2023-08-24T10:16:50;99617.44;;;26.21;63.53
75775;BME280;64505;51.458;7.556;2023-08-24T10:18:52;99629.69;;;26.27;63.31
75775;BME280;64505;51.458;7.556;2023-08-24T10:20:54;99640.06;;;26.25;62.70
75775;BME280;64505;51.458;7.556;2023-08-24T10:22:57;99644.19;;;26.31;60.09
75775;BME280;64505;51.458;7.556;2023-08-24T10:25:03;99649.69;;;26.43;61.62
75775;BME280;64505;51.458;7.556;2023-08-24T10:27:08;99655.84;;;26.52;59.27
75775;BME280;64505;51.458;7.556;2023-08-24T10:29:10;99667.31;;;26.58;61.16
75775;BME280;64505;51.458;7.556;2023-08-24T10:31:12;99664.88;;;26.35;56.09
75775;BME280;64505;51.458;7.556;2023-08-24T10:33:14;99669.22;;;26.57;59.11
75775;BME280;64505;51.458;7.556;2023-08-24T10:35:17;99667.88;;;26.42;61.95
75775;BME280;64505;51.458;7.556;2023-08-24T10:37:26;99665.31;;;26.67;62.40
75775;BME280;64505;51.458;7.556;2023-08-24T10:39:28;99664.59;;;26.78;61.69
75775;BME280;64505;51.458;7.556;2023-08-24T10:41:46;99667.94;;;26.84;59.14
75775;BME280;64505;51.458;7.556;2023-08-24T10:43:49;99669.06;;;26.83;58.08
75775;BME280;64505;51.458;7.556;2023-08-24T10:45:58;99659.81;;;26.84;57.52
75775;BME280;64505;51.458;7.556;2023-08-24T10:48:01;99655.53;;;26.95;57.21
75775;BME280;64505;51.458;7.556;2023-08-24T10:50:02;99648.75;;;26.89;55.57
75775;BME280;64505;51.458;7.556;2023-08-24T10:52:32;99652.34;;;27.14;57.66